Fisktrans — LIAB — position and weather

sailwx.info

Track history (hours):
 
Tides and Currents Weather Stations Pressure Air Temp Water Temp Dewpoint Dewpoint Depression Visibility Wind Speed Wind Dir Waves Ship Positions

Fisktrans

Last reported at 2015-Mar-06 14:33 UTC. Time now 2015-Mar-06 16:08 UTC.
Position N 67°44' E 014°31'.

Length 58 m.

Type: Cargo ship. MMSI: 258034000.

Date/timePositionNaut miles runAvg speedWind from/ knotsBaromVisibWave heightAir tempDewpointWater temp
2015-Mar-06 14:33N 67°44' E 014°31'12 9.3
2015-Mar-06 13:19N 67°32' E 014°30'7 9.3
2015-Mar-06 12:33N 67°25' E 014°27'8 8.2
2015-Mar-06 11:33N 67°17' E 014°23'0 0.1
2015-Mar-06 10:33N 67°17' E 014°23'0 0.0
2015-Mar-06 09:33N 67°17' E 014°23'0 0.0
2015-Mar-06 08:33N 67°17' E 014°23'0 0.0
2015-Mar-06 07:33N 67°17' E 014°23'0 0.0
2015-Mar-06 06:33N 67°17' E 014°23'0 0.0
2015-Mar-06 05:33N 67°17' E 014°23'0 0.0
2015-Mar-06 04:34N 67°17' E 014°23'0 0.0
2015-Mar-06 03:33N 67°17' E 014°23'0 0.0
2015-Mar-06 02:33N 67°17' E 014°23'0 0.0
2015-Mar-06 01:33N 67°17' E 014°23'0 0.0
2015-Mar-06 00:33N 67°17' E 014°23'0 0.0
2015-Mar-05 23:33N 67°17' E 014°23'0 0.0
2015-Mar-05 22:33N 67°17' E 014°23'0 0.0
2015-Mar-05 21:33N 67°17' E 014°23'0 0.0
2015-Mar-05 20:33N 67°17' E 014°23'0 0.0
2015-Mar-05 19:33N 67°17' E 014°23'0 0.0
2015-Mar-05 18:33N 67°17' E 014°23'0 0.0
2015-Mar-05 17:33N 67°17' E 014°23'0 0.0
2015-Mar-05 16:33N 67°17' E 014°23'0 0.0
2015-Mar-05 15:33N 67°17' E 014°23'0 0.0
2015-Mar-05 14:33N 67°17' E 014°23'0 0.0
2015-Mar-05 13:33N 67°17' E 014°23'0 0.0
2015-Mar-05 12:33N 67°17' E 014°23'0 0.0
2015-Mar-05 11:33N 67°17' E 014°23'0 0.0
2015-Mar-05 10:33N 67°17' E 014°23'0 0.0
2015-Mar-05 09:33N 67°17' E 014°23'0 0.0
2015-Mar-05 08:33N 67°17' E 014°23'0 0.0
2015-Mar-05 07:33N 67°17' E 014°23'0 0.0
2015-Mar-05 06:33N 67°17' E 014°23'0 0.3
2015-Mar-05 05:33N 67°17' E 014°22'10 9.5
2015-Mar-05 04:33N 67°27' E 014°28'160 7.6
2015-Mar-04 07:25N 69°35' E 018°49'4 4.6
2015-Mar-04 06:33N 69°38' E 018°57'0 0.0
2015-Mar-04 05:33N 69°38' E 018°57'0 0.0
2015-Mar-04 04:33N 69°38' E 018°57'0 0.0
2015-Mar-04 03:33N 69°38' E 018°57'159 4.2
2015-Mar-02 13:24N 67°32' E 014°30'910.5
2015-Mar-02 12:33N 67°23' E 014°26'6 5.9
2015-Mar-02 11:33N 67°17' E 014°23'0 0.1
2015-Mar-02 10:34N 67°17' E 014°23'0 0.0
2015-Mar-02 09:33N 67°17' E 014°23'0 0.0
2015-Mar-02 08:33N 67°17' E 014°23'0 0.0
2015-Mar-02 07:33N 67°17' E 014°23'0 0.0
2015-Mar-02 06:33N 67°17' E 014°23'0 0.4
2015-Mar-02 05:33N 67°17' E 014°22'9 8.9
2015-Mar-02 04:33N 67°26' E 014°28'160 8.0
2015-Mar-01 08:33N 69°34' E 018°48'5 4.9
2015-Mar-01 07:33N 69°38' E 018°57'0 0.0
2015-Mar-01 06:33N 69°38' E 018°57'0 0.0
2015-Mar-01 05:33N 69°38' E 018°57'0 0.0
2015-Mar-01 04:33N 69°38' E 018°57'0 0.0
2015-Mar-01 03:33N 69°38' E 018°57'0 0.0
2015-Mar-01 02:33N 69°38' E 018°57'0 0.0
2015-Mar-01 01:33N 69°38' E 018°57'0 0.0
2015-Mar-01 00:33N 69°38' E 018°57'0 0.0
2015-Feb-28 23:33N 69°38' E 018°57'0 0.0
2015-Feb-28 22:33N 69°38' E 018°57'0 0.1
2015-Feb-28 21:33N 69°38' E 018°57'0 0.0
2015-Feb-28 20:33N 69°38' E 018°57'0 0.0
2015-Feb-28 19:33N 69°38' E 018°57'0 0.0
2015-Feb-28 18:33N 69°38' E 018°57'0 0.0
2015-Feb-28 17:33N 69°38' E 018°57'0 0.0
2015-Feb-28 16:33N 69°38' E 018°57'0 0.0
2015-Feb-28 15:33N 69°38' E 018°57'0 0.0
2015-Feb-28 14:33N 69°38' E 018°57'0 0.0
2015-Feb-28 13:33N 69°38' E 018°57'0 0.0
2015-Feb-28 12:33N 69°38' E 018°57'0 0.0
2015-Feb-28 11:33N 69°38' E 018°57'0 0.0
2015-Feb-28 10:33N 69°38' E 018°57'0 0.0
2015-Feb-28 09:33N 69°38' E 018°57'0 0.0
2015-Feb-28 08:33N 69°38' E 018°57'0 0.0
2015-Feb-28 07:33N 69°38' E 018°57'0 0.0
2015-Feb-28 06:33N 69°38' E 018°57'0 0.0
2015-Feb-28 05:33N 69°38' E 018°57'0 0.0
2015-Feb-28 04:33N 69°38' E 018°57'0 0.0
2015-Feb-28 03:33N 69°38' E 018°57'0 0.0
2015-Feb-28 02:33N 69°38' E 018°57'0 0.0
2015-Feb-28 01:33N 69°38' E 018°57'0 0.0
2015-Feb-28 00:33N 69°38' E 018°57'0 0.0
2015-Feb-27 23:33N 69°38' E 018°57'0 0.0
2015-Feb-27 22:33N 69°38' E 018°57'0 0.0
2015-Feb-27 21:33N 69°38' E 018°57'0 0.0
2015-Feb-27 20:33N 69°38' E 018°57'0 0.0
2015-Feb-27 19:33N 69°38' E 018°57'0 0.0
2015-Feb-27 18:33N 69°38' E 018°57'161 6.4
2015-Feb-26 17:33N 67°30' E 014°29'1110.7
2015-Feb-26 16:33N 67°20' E 014°23'2 1.8
2015-Feb-26 15:33N 67°18' E 014°23'0 0.0
2015-Feb-26 14:33N 67°18' E 014°23'0 0.0
2015-Feb-26 13:33N 67°18' E 014°23'0 0.0
2015-Feb-26 12:33N 67°18' E 014°23'0 0.0
2015-Feb-26 11:33N 67°18' E 014°23'0 0.0
2015-Feb-26 10:33N 67°18' E 014°23'0 0.0
2015-Feb-26 09:33N 67°18' E 014°23'0 0.0
2015-Feb-26 08:33N 67°18' E 014°23'0 0.0
2015-Feb-26 07:33N 67°18' E 014°23'0 0.0
2015-Feb-26 06:33N 67°18' E 014°23'0 0.0
2015-Feb-26 05:33N 67°18' E 014°23'0 0.0
2015-Feb-26 04:33N 67°18' E 014°23'0 0.0
2015-Feb-26 03:33N 67°18' E 014°23'0 0.0
2015-Feb-26 02:33N 67°18' E 014°23'0 0.0
2015-Feb-26 01:33N 67°18' E 014°23'0 0.0
2015-Feb-26 00:33N 67°18' E 014°23'0 0.0
2015-Feb-25 23:33N 67°18' E 014°23'0 0.0
2015-Feb-25 22:33N 67°18' E 014°23'0 0.0
2015-Feb-25 21:33N 67°18' E 014°23'0 0.0
2015-Feb-25 20:33N 67°18' E 014°23'0 0.0
2015-Feb-25 19:33N 67°18' E 014°23'0 0.0
2015-Feb-25 18:33N 67°18' E 014°23'0 0.0
2015-Feb-25 17:33N 67°18' E 014°23'0 0.0
2015-Feb-25 16:33N 67°18' E 014°23'0 0.0
2015-Feb-25 15:33N 67°18' E 014°23'0 0.0
2015-Feb-25 14:33N 67°18' E 014°23'0 0.4
2015-Feb-25 13:33N 67°17' E 014°23'0 0.0
2015-Feb-25 12:33N 67°17' E 014°23'0 0.0
2015-Feb-25 11:33N 67°17' E 014°23'0 0.0
2015-Feb-25 10:33N 67°17' E 014°23'0 0.0
2015-Feb-25 09:33N 67°17' E 014°23'0 0.0
2015-Feb-25 08:33N 67°17' E 014°23'0 0.0
2015-Feb-25 07:33N 67°17' E 014°23'0 0.0
2015-Feb-25 06:33N 67°17' E 014°23'0 0.0
2015-Feb-25 05:33N 67°17' E 014°23'0 0.0
2015-Feb-25 04:33N 67°17' E 014°23'0 0.0
2015-Feb-25 03:33N 67°17' E 014°23'0 0.0
2015-Feb-25 02:33N 67°17' E 014°23'0 0.0
2015-Feb-25 01:33N 67°17' E 014°23'0 0.0
2015-Feb-25 00:33N 67°17' E 014°23'0 0.0
2015-Feb-24 23:33N 67°17' E 014°23'0 0.0
2015-Feb-24 22:33N 67°17' E 014°23'0 0.0
2015-Feb-24 21:33N 67°17' E 014°23'0 0.0
2015-Feb-24 20:33N 67°17' E 014°23'0 0.0
2015-Feb-24 19:33N 67°17' E 014°23'0 0.0
2015-Feb-24 18:33N 67°17' E 014°23'0 0.0
2015-Feb-24 17:33N 67°17' E 014°23'0 0.0
2015-Feb-24 16:33N 67°17' E 014°23'0 0.0
2015-Feb-24 15:33N 67°17' E 014°23'0 0.0
2015-Feb-24 14:33N 67°17' E 014°23'  
Track history (hours):
 
Tides and Currents Weather Stations Pressure Air Temp Water Temp Dewpoint Dewpoint Depression Visibility Wind Speed Wind Dir Waves Ship Positions

Fisktrans

Last reported at 2015-Mar-06 14:33 UTC. Time now 2015-Mar-06 16:08 UTC.
Position N 67°44' E 014°31'.

Length 58 m.

Type: Cargo ship. MMSI: 258034000.

Date/timePositionNaut miles runAvg speedWind from/ knotsBaromVisibWave heightAir tempDewpointWater temp
2015-Mar-06 14:33N 67°44' E 014°31'12 9.3
2015-Mar-06 13:19N 67°32' E 014°30'7 9.3
2015-Mar-06 12:33N 67°25' E 014°27'8 8.2
2015-Mar-06 11:33N 67°17' E 014°23'0 0.1
2015-Mar-06 10:33N 67°17' E 014°23'0 0.0
2015-Mar-06 09:33N 67°17' E 014°23'0 0.0
2015-Mar-06 08:33N 67°17' E 014°23'0 0.0
2015-Mar-06 07:33N 67°17' E 014°23'0 0.0
2015-Mar-06 06:33N 67°17' E 014°23'0 0.0
2015-Mar-06 05:33N 67°17' E 014°23'0 0.0
2015-Mar-06 04:34N 67°17' E 014°23'0 0.0
2015-Mar-06 03:33N 67°17' E 014°23'0 0.0
2015-Mar-06 02:33N 67°17' E 014°23'0 0.0
2015-Mar-06 01:33N 67°17' E 014°23'0 0.0
2015-Mar-06 00:33N 67°17' E 014°23'0 0.0
2015-Mar-05 23:33N 67°17' E 014°23'0 0.0
2015-Mar-05 22:33N 67°17' E 014°23'0 0.0
2015-Mar-05 21:33N 67°17' E 014°23'0 0.0
2015-Mar-05 20:33N 67°17' E 014°23'0 0.0
2015-Mar-05 19:33N 67°17' E 014°23'0 0.0
2015-Mar-05 18:33N 67°17' E 014°23'0 0.0
2015-Mar-05 17:33N 67°17' E 014°23'0 0.0
2015-Mar-05 16:33N 67°17' E 014°23'0 0.0
2015-Mar-05 15:33N 67°17' E 014°23'0 0.0
2015-Mar-05 14:33N 67°17' E 014°23'0 0.0
2015-Mar-05 13:33N 67°17' E 014°23'0 0.0
2015-Mar-05 12:33N 67°17' E 014°23'0 0.0
2015-Mar-05 11:33N 67°17' E 014°23'0 0.0
2015-Mar-05 10:33N 67°17' E 014°23'0 0.0
2015-Mar-05 09:33N 67°17' E 014°23'0 0.0
2015-Mar-05 08:33N 67°17' E 014°23'0 0.0
2015-Mar-05 07:33N 67°17' E 014°23'0 0.0
2015-Mar-05 06:33N 67°17' E 014°23'0 0.3
2015-Mar-05 05:33N 67°17' E 014°22'10 9.5
2015-Mar-05 04:33N 67°27' E 014°28'160 7.6
2015-Mar-04 07:25N 69°35' E 018°49'4 4.6
2015-Mar-04 06:33N 69°38' E 018°57'0 0.0
2015-Mar-04 05:33N 69°38' E 018°57'0 0.0
2015-Mar-04 04:33N 69°38' E 018°57'0 0.0
2015-Mar-04 03:33N 69°38' E 018°57'159 4.2
2015-Mar-02 13:24N 67°32' E 014°30'910.5
2015-Mar-02 12:33N 67°23' E 014°26'6 5.9
2015-Mar-02 11:33N 67°17' E 014°23'0 0.1
2015-Mar-02 10:34N 67°17' E 014°23'0 0.0
2015-Mar-02 09:33N 67°17' E 014°23'0 0.0
2015-Mar-02 08:33N 67°17' E 014°23'0 0.0
2015-Mar-02 07:33N 67°17' E 014°23'0 0.0
2015-Mar-02 06:33N 67°17' E 014°23'0 0.4
2015-Mar-02 05:33N 67°17' E 014°22'9 8.9
2015-Mar-02 04:33N 67°26' E 014°28'160 8.0
2015-Mar-01 08:33N 69°34' E 018°48'5 4.9
2015-Mar-01 07:33N 69°38' E 018°57'0 0.0
2015-Mar-01 06:33N 69°38' E 018°57'0 0.0
2015-Mar-01 05:33N 69°38' E 018°57'0 0.0
2015-Mar-01 04:33N 69°38' E 018°57'0 0.0
2015-Mar-01 03:33N 69°38' E 018°57'0 0.0
2015-Mar-01 02:33N 69°38' E 018°57'0 0.0
2015-Mar-01 01:33N 69°38' E 018°57'0 0.0
2015-Mar-01 00:33N 69°38' E 018°57'0 0.0
2015-Feb-28 23:33N 69°38' E 018°57'0 0.0
2015-Feb-28 22:33N 69°38' E 018°57'0 0.1
2015-Feb-28 21:33N 69°38' E 018°57'0 0.0
2015-Feb-28 20:33N 69°38' E 018°57'0 0.0
2015-Feb-28 19:33N 69°38' E 018°57'0 0.0
2015-Feb-28 18:33N 69°38' E 018°57'0 0.0
2015-Feb-28 17:33N 69°38' E 018°57'0 0.0
2015-Feb-28 16:33N 69°38' E 018°57'0 0.0
2015-Feb-28 15:33N 69°38' E 018°57'0 0.0
2015-Feb-28 14:33N 69°38' E 018°57'0 0.0
2015-Feb-28 13:33N 69°38' E 018°57'0 0.0
2015-Feb-28 12:33N 69°38' E 018°57'0 0.0
2015-Feb-28 11:33N 69°38' E 018°57'0 0.0
2015-Feb-28 10:33N 69°38' E 018°57'0 0.0
2015-Feb-28 09:33N 69°38' E 018°57'0 0.0
2015-Feb-28 08:33N 69°38' E 018°57'0 0.0
2015-Feb-28 07:33N 69°38' E 018°57'0 0.0
2015-Feb-28 06:33N 69°38' E 018°57'0 0.0
2015-Feb-28 05:33N 69°38' E 018°57'0 0.0
2015-Feb-28 04:33N 69°38' E 018°57'0 0.0
2015-Feb-28 03:33N 69°38' E 018°57'0 0.0
2015-Feb-28 02:33N 69°38' E 018°57'0 0.0
2015-Feb-28 01:33N 69°38' E 018°57'0 0.0
2015-Feb-28 00:33N 69°38' E 018°57'0 0.0
2015-Feb-27 23:33N 69°38' E 018°57'0 0.0
2015-Feb-27 22:33N 69°38' E 018°57'0 0.0
2015-Feb-27 21:33N 69°38' E 018°57'0 0.0
2015-Feb-27 20:33N 69°38' E 018°57'0 0.0
2015-Feb-27 19:33N 69°38' E 018°57'0 0.0
2015-Feb-27 18:33N 69°38' E 018°57'161 6.4
2015-Feb-26 17:33N 67°30' E 014°29'1110.7
2015-Feb-26 16:33N 67°20' E 014°23'2 1.8
2015-Feb-26 15:33N 67°18' E 014°23'0 0.0
2015-Feb-26 14:33N 67°18' E 014°23'0 0.0
2015-Feb-26 13:33N 67°18' E 014°23'0 0.0
2015-Feb-26 12:33N 67°18' E 014°23'0 0.0
2015-Feb-26 11:33N 67°18' E 014°23'0 0.0
2015-Feb-26 10:33N 67°18' E 014°23'0 0.0
2015-Feb-26 09:33N 67°18' E 014°23'0 0.0
2015-Feb-26 08:33N 67°18' E 014°23'0 0.0
2015-Feb-26 07:33N 67°18' E 014°23'0 0.0
2015-Feb-26 06:33N 67°18' E 014°23'0 0.0
2015-Feb-26 05:33N 67°18' E 014°23'0 0.0
2015-Feb-26 04:33N 67°18' E 014°23'0 0.0
2015-Feb-26 03:33N 67°18' E 014°23'0 0.0
2015-Feb-26 02:33N 67°18' E 014°23'0 0.0
2015-Feb-26 01:33N 67°18' E 014°23'0 0.0
2015-Feb-26 00:33N 67°18' E 014°23'0 0.0
2015-Feb-25 23:33N 67°18' E 014°23'0 0.0
2015-Feb-25 22:33N 67°18' E 014°23'0 0.0
2015-Feb-25 21:33N 67°18' E 014°23'0 0.0
2015-Feb-25 20:33N 67°18' E 014°23'0 0.0
2015-Feb-25 19:33N 67°18' E 014°23'0 0.0
2015-Feb-25 18:33N 67°18' E 014°23'0 0.0
2015-Feb-25 17:33N 67°18' E 014°23'0 0.0
2015-Feb-25 16:33N 67°18' E 014°23'0 0.0
2015-Feb-25 15:33N 67°18' E 014°23'0 0.0
2015-Feb-25 14:33N 67°18' E 014°23'0 0.4
2015-Feb-25 13:33N 67°17' E 014°23'0 0.0
2015-Feb-25 12:33N 67°17' E 014°23'0 0.0
2015-Feb-25 11:33N 67°17' E 014°23'0 0.0
2015-Feb-25 10:33N 67°17' E 014°23'0 0.0
2015-Feb-25 09:33N 67°17' E 014°23'0 0.0
2015-Feb-25 08:33N 67°17' E 014°23'0 0.0
2015-Feb-25 07:33N 67°17' E 014°23'0 0.0
2015-Feb-25 06:33N 67°17' E 014°23'0 0.0
2015-Feb-25 05:33N 67°17' E 014°23'0 0.0
2015-Feb-25 04:33N 67°17' E 014°23'0 0.0
2015-Feb-25 03:33N 67°17' E 014°23'0 0.0
2015-Feb-25 02:33N 67°17' E 014°23'0 0.0
2015-Feb-25 01:33N 67°17' E 014°23'0 0.0
2015-Feb-25 00:33N 67°17' E 014°23'0 0.0
2015-Feb-24 23:33N 67°17' E 014°23'0 0.0
2015-Feb-24 22:33N 67°17' E 014°23'0 0.0
2015-Feb-24 21:33N 67°17' E 014°23'0 0.0
2015-Feb-24 20:33N 67°17' E 014°23'0 0.0
2015-Feb-24 19:33N 67°17' E 014°23'0 0.0
2015-Feb-24 18:33N 67°17' E 014°23'0 0.0
2015-Feb-24 17:33N 67°17' E 014°23'0 0.0
2015-Feb-24 16:33N 67°17' E 014°23'0 0.0
2015-Feb-24 15:33N 67°17' E 014°23'0 0.0
2015-Feb-24 14:33N 67°17' E 014°23'  

Dump ship's entire track history